createdAt,value
2019-02-16T00:00:19.344Z,99.90
2019-02-16T00:02:52.217Z,99.90
2019-02-16T00:05:22.609Z,99.90
2019-02-16T00:07:54.924Z,99.90
2019-02-16T00:10:27.267Z,99.90
2019-02-16T00:12:58.876Z,99.90
2019-02-16T00:15:31.078Z,99.90
2019-02-16T00:18:02.962Z,99.90
2019-02-16T00:20:37.140Z,99.90
2019-02-16T00:23:08.268Z,99.90
2019-02-16T00:25:40.346Z,99.90
2019-02-16T00:28:12.496Z,99.90
2019-02-16T00:30:45.669Z,99.90
2019-02-16T00:33:18.281Z,99.90
2019-02-16T00:35:49.795Z,99.90
2019-02-16T00:38:20.129Z,99.90
2019-02-16T00:40:51.405Z,99.90
2019-02-16T00:43:22.815Z,99.90
2019-02-16T00:45:54.123Z,99.90
2019-02-16T00:48:24.779Z,99.90
2019-02-16T00:50:57.640Z,99.90
2019-02-16T00:53:29.075Z,99.90
2019-02-16T00:55:59.534Z,99.90
2019-02-16T00:58:33.787Z,99.90
2019-02-16T01:01:09.091Z,99.90
2019-02-16T01:03:40.449Z,99.90
2019-02-16T01:06:13.121Z,99.90
2019-02-16T01:08:44.753Z,99.90
2019-02-16T01:11:16.899Z,99.90
2019-02-16T01:13:47.447Z,99.90
2019-02-16T01:16:18.387Z,99.90
2019-02-16T01:18:51.279Z,99.90
2019-02-16T01:21:25.650Z,99.90
2019-02-16T01:23:59.340Z,99.90
2019-02-16T01:26:31.931Z,99.90
2019-02-16T01:29:05.179Z,99.90
2019-02-16T01:31:37.062Z,99.90
2019-02-16T01:34:09.602Z,99.90
2019-02-16T01:36:43.785Z,99.90
2019-02-16T01:39:19.153Z,99.90
2019-02-16T01:41:51.466Z,99.90
2019-02-16T01:44:23.817Z,99.90
2019-02-16T01:46:55.708Z,99.90
2019-02-16T01:49:28.619Z,99.90
2019-02-16T01:52:03.514Z,99.90
2019-02-16T01:54:37.806Z,99.90
2019-02-16T01:57:12.325Z,99.90
2019-02-16T01:59:43.503Z,99.90
2019-02-16T02:02:15.847Z,99.90
2019-02-16T02:04:46.324Z,99.90
2019-02-16T02:07:16.710Z,99.90
2019-02-16T02:09:49.613Z,99.90
2019-02-16T02:12:21.835Z,99.90
2019-02-16T02:14:55.769Z,99.90
2019-02-16T02:17:27.394Z,99.90
2019-02-16T02:19:57.921Z,99.90
2019-02-16T02:22:28.273Z,99.90
2019-02-16T02:24:58.711Z,99.90
2019-02-16T02:27:29.197Z,99.90
2019-02-16T02:29:59.657Z,99.90
2019-02-16T02:32:30.057Z,99.90
2019-02-16T02:35:00.461Z,99.90
2019-02-16T02:37:30.897Z,99.90
2019-02-16T02:40:01.233Z,99.90
2019-02-16T02:42:31.561Z,99.90
2019-02-16T02:45:03.474Z,99.90
2019-02-16T02:47:35.026Z,99.90
2019-02-16T02:50:05.970Z,99.90
2019-02-16T02:52:36.358Z,99.90
2019-02-16T02:55:07.947Z,99.90
2019-02-16T02:57:38.438Z,99.90
2019-02-16T03:00:10.344Z,99.90
2019-02-16T03:02:40.722Z,99.90
2019-02-16T03:05:11.305Z,99.90
2019-02-16T03:07:41.757Z,99.90
2019-02-16T03:10:12.121Z,99.90
2019-02-16T03:12:42.520Z,99.90
2019-02-16T03:15:12.854Z,99.90
2019-02-16T03:17:43.177Z,99.90
2019-02-16T03:20:13.962Z,99.90
2019-02-16T03:23:11.516Z,99.90
2019-02-16T03:25:47.870Z,99.90
2019-02-16T03:29:01.119Z,99.90
2019-02-16T03:32:11.996Z,99.90
2019-02-16T03:35:33.963Z,99.90
2019-02-16T03:38:36.342Z,99.90
2019-02-16T03:41:06.695Z,99.90
2019-02-16T03:43:37.130Z,99.90
2019-02-16T03:46:07.553Z,99.90
2019-02-16T03:48:37.999Z,99.90
2019-02-16T03:51:08.415Z,99.90
2019-02-16T03:53:38.934Z,99.90
2019-02-16T03:56:09.465Z,99.90
2019-02-16T03:58:40.366Z,99.90
2019-02-16T04:01:11.834Z,99.90
2019-02-16T04:03:42.274Z,99.90
2019-02-16T04:06:12.705Z,99.90
2019-02-16T04:08:43.137Z,99.90
2019-02-16T04:11:13.568Z,99.90
2019-02-16T04:13:44.049Z,99.90
2019-02-16T04:16:25.934Z,99.90
2019-02-16T04:18:56.357Z,99.90
2019-02-16T04:21:26.698Z,99.90
2019-02-16T04:23:57.042Z,99.90
2019-02-16T04:26:27.489Z,99.90
2019-02-16T04:28:57.904Z,99.90
2019-02-16T04:31:28.627Z,99.90
2019-02-16T04:33:59.334Z,99.90
2019-02-16T04:36:29.805Z,99.90
2019-02-16T04:39:00.170Z,99.90
2019-02-16T04:41:30.509Z,99.90
2019-02-16T04:44:00.819Z,99.90
2019-02-16T04:46:31.206Z,99.90
2019-02-16T04:49:01.563Z,99.90
2019-02-16T04:51:31.883Z,99.90
2019-02-16T04:54:03.222Z,99.90
2019-02-16T04:56:33.555Z,99.90
2019-02-16T04:59:03.958Z,99.90
2019-02-16T05:01:35.332Z,99.90
2019-02-16T05:04:05.635Z,99.90
2019-02-16T05:06:36.072Z,99.90
2019-02-16T05:09:07.504Z,99.90
2019-02-16T05:11:37.839Z,99.90
2019-02-16T05:14:08.174Z,99.90
2019-02-16T05:16:38.507Z,99.90
2019-02-16T05:19:08.826Z,99.90
2019-02-16T05:21:40.226Z,99.90
2019-02-16T05:24:10.622Z,99.90
2019-02-16T05:26:41.210Z,99.90
2019-02-16T05:29:11.553Z,99.90
2019-02-16T05:31:41.868Z,99.90
2019-02-16T05:34:13.326Z,99.90
2019-02-16T05:36:43.642Z,99.90
2019-02-16T05:39:13.964Z,99.90
2019-02-16T05:41:44.720Z,99.90
2019-02-16T05:44:15.110Z,99.90
2019-02-16T05:46:45.501Z,99.90
2019-02-16T05:49:15.958Z,99.90
2019-02-16T05:51:47.131Z,99.90
2019-02-16T05:54:17.452Z,99.90
2019-02-16T05:56:48.236Z,99.90
2019-02-16T05:59:18.964Z,99.90
2019-02-16T06:01:54.070Z,99.90
2019-02-16T06:04:22.332Z,99.90
2019-02-16T06:06:52.702Z,99.90
2019-02-16T06:09:22.988Z,99.90
2019-02-16T06:11:53.274Z,99.90
2019-02-16T06:14:23.675Z,99.90
2019-02-16T06:16:54.113Z,99.90
2019-02-16T06:19:24.495Z,99.90
2019-02-16T06:21:54.888Z,99.90
2019-02-16T06:24:25.252Z,99.90
2019-02-16T06:26:55.543Z,99.90
2019-02-16T06:29:25.872Z,99.90
2019-02-16T06:31:56.195Z,99.90
2019-02-16T06:34:26.549Z,99.90
2019-02-16T06:36:56.843Z,99.90
2019-02-16T06:39:27.305Z,99.90
2019-02-16T06:41:58.067Z,99.90
2019-02-16T06:44:28.460Z,99.90
2019-02-16T06:46:58.818Z,99.90
2019-02-16T06:49:29.194Z,99.90
2019-02-16T06:52:00.221Z,99.90
2019-02-16T06:54:30.560Z,99.90
2019-02-16T06:57:19.235Z,99.90
2019-02-16T06:59:49.930Z,99.90
2019-02-16T07:02:22.662Z,99.90
2019-02-16T07:04:53.237Z,99.90
2019-02-16T07:07:23.584Z,99.90
2019-02-16T07:09:54.027Z,99.90
2019-02-16T07:12:32.161Z,99.90
2019-02-16T07:15:02.543Z,99.90
2019-02-16T07:17:39.135Z,99.90
2019-02-16T07:20:10.218Z,99.90
2019-02-16T07:22:40.593Z,99.90
2019-02-16T07:25:11.003Z,99.90
2019-02-16T07:27:41.663Z,99.90
2019-02-16T07:30:12.292Z,99.90
2019-02-16T07:32:42.610Z,99.90
2019-02-16T07:35:12.999Z,99.90
2019-02-16T07:37:43.586Z,99.90
2019-02-16T07:40:13.891Z,99.90
2019-02-16T07:42:58.318Z,99.90
2019-02-16T07:45:55.195Z,99.90
2019-02-16T07:48:44.945Z,99.90
2019-02-16T07:51:40.739Z,99.90
2019-02-16T07:54:29.873Z,99.90
2019-02-16T07:57:07.532Z,99.90
2019-02-16T08:00:01.490Z,99.90
2019-02-16T08:02:53.225Z,99.90
2019-02-16T08:05:34.391Z,99.90
2019-02-16T08:08:10.443Z,99.90
2019-02-16T08:11:05.867Z,99.90
2019-02-16T08:13:51.371Z,99.90
2019-02-16T08:16:29.367Z,99.90
2019-02-16T08:19:23.063Z,99.90
2019-02-16T08:22:21.659Z,99.90
2019-02-16T08:25:20.748Z,99.90
2019-02-16T08:27:57.869Z,99.90
2019-02-16T08:30:37.220Z,99.90
2019-02-16T08:33:41.843Z,99.90
2019-02-16T08:36:21.927Z,99.90
2019-02-16T08:39:00.966Z,99.90
2019-02-16T08:41:53.765Z,99.90
2019-02-16T08:44:47.524Z,99.90
2019-02-16T08:47:33.885Z,99.90
2019-02-16T08:50:29.947Z,99.90
2019-02-16T08:53:36.057Z,99.90
2019-02-16T08:56:22.784Z,99.90
2019-02-16T08:59:02.035Z,99.90
2019-02-16T09:01:54.803Z,99.90
2019-02-16T09:04:37.341Z,99.90
2019-02-16T09:07:25.574Z,99.90
2019-02-16T09:10:02.068Z,99.90
2019-02-16T09:12:40.903Z,99.90
2019-02-16T09:15:33.345Z,99.90
2019-02-16T09:18:20.750Z,99.90
2019-02-16T09:21:14.757Z,99.90
2019-02-16T09:23:59.418Z,99.90
2019-02-16T09:26:47.619Z,99.90
2019-02-16T09:29:30.534Z,99.90
2019-02-16T09:32:33.471Z,99.90
2019-02-16T09:35:29.238Z,99.90
2019-02-16T09:38:09.033Z,99.90
2019-02-16T09:40:52.974Z,99.90
2019-02-16T09:43:48.470Z,99.90
2019-02-16T09:46:28.233Z,99.90
2019-02-16T09:49:05.015Z,99.90
2019-02-16T09:51:58.568Z,99.90
2019-02-16T09:54:42.751Z,99.90
2019-02-16T09:57:21.018Z,99.90
2019-02-16T10:00:14.213Z,99.90
2019-02-16T10:02:56.920Z,99.90
2019-02-16T10:05:45.072Z,99.90
2019-02-16T10:08:29.225Z,99.90
2019-02-16T10:11:10.277Z,99.90
2019-02-16T10:13:57.675Z,99.90
2019-02-16T10:16:41.971Z,99.30
2019-02-16T10:19:23.551Z,92.90
2019-02-16T10:22:24.945Z,91.20
2019-02-16T10:25:05.195Z,76.20
2019-02-16T10:27:54.846Z,74.90
2019-02-16T10:30:34.241Z,82.90
2019-02-16T10:33:22.755Z,88.60
2019-02-16T10:36:03.509Z,78.90
2019-02-16T10:38:56.592Z,78.00
2019-02-16T10:41:51.971Z,82.50
2019-02-16T10:44:34.212Z,78.40
2019-02-16T10:47:11.144Z,73.40
2019-02-16T10:49:54.062Z,69.00
2019-02-16T10:52:32.984Z,70.30
2019-02-16T10:55:29.928Z,70.10
2019-02-16T10:58:15.239Z,65.30
2019-02-16T11:01:06.049Z,69.90
2019-02-16T11:03:42.822Z,76.40
2019-02-16T11:06:44.654Z,67.10
2019-02-16T11:09:28.381Z,65.20
2019-02-16T11:12:07.203Z,67.90
2019-02-16T11:14:47.884Z,65.40
2019-02-16T11:17:36.084Z,68.60
2019-02-16T11:20:17.949Z,78.00
2019-02-16T11:23:06.094Z,71.60
2019-02-16T11:26:04.868Z,66.50
2019-02-16T11:28:48.935Z,58.90
2019-02-16T11:31:43.087Z,68.30
2019-02-16T11:34:26.421Z,61.10
2019-02-16T11:37:02.435Z,64.20
2019-02-16T11:39:43.468Z,59.50
2019-02-16T11:42:44.939Z,54.70
2019-02-16T11:45:34.410Z,56.40
2019-02-16T11:48:18.929Z,54.00
2019-02-16T11:50:55.731Z,50.90
2019-02-16T11:53:40.759Z,49.00
2019-02-16T11:56:43.174Z,49.30
2019-02-16T11:59:39.141Z,49.20
2019-02-16T12:02:15.905Z,51.90
2019-02-16T12:04:51.022Z,58.90
2019-02-16T12:07:32.776Z,59.00
2019-02-16T12:10:15.503Z,57.30
2019-02-16T12:13:21.052Z,58.00
2019-02-16T12:16:02.536Z,56.70
2019-02-16T12:18:55.302Z,55.20
2019-02-16T12:21:57.295Z,54.70
2019-02-16T12:24:58.466Z,57.50
2019-02-16T12:27:43.033Z,58.10
2019-02-16T12:30:29.894Z,57.10
2019-02-16T12:33:08.263Z,56.20
2019-02-16T12:35:52.670Z,53.50
2019-02-16T12:38:36.948Z,55.90
2019-02-16T12:41:25.821Z,54.00
2019-02-16T12:44:14.191Z,55.30
2019-02-16T12:47:09.738Z,55.30
2019-02-16T12:49:47.604Z,56.40
2019-02-16T12:52:28.802Z,55.50
2019-02-16T12:55:18.205Z,53.80
2019-02-16T12:57:55.891Z,52.90
2019-02-16T13:00:44.046Z,51.00
2019-02-16T13:03:38.411Z,51.40
2019-02-16T13:06:27.571Z,49.20
2019-02-16T13:09:20.132Z,47.50
2019-02-16T13:12:08.776Z,46.10
2019-02-16T13:14:58.680Z,47.80
2019-02-16T13:17:47.066Z,50.10
2019-02-16T13:20:24.627Z,50.70
2019-02-16T13:23:02.846Z,49.70
2019-02-16T13:25:41.415Z,47.60
2019-02-16T13:28:20.499Z,47.80
2019-02-16T13:31:00.918Z,47.60
2019-02-16T13:33:51.800Z,47.90
2019-02-16T13:36:32.257Z,47.50
2019-02-16T13:39:31.618Z,49.70
2019-02-16T13:42:10.339Z,50.20
2019-02-16T13:45:00.579Z,49.80
2019-02-16T13:47:49.180Z,51.40
2019-02-16T13:50:37.962Z,51.40
2019-02-16T13:53:27.136Z,49.40
2019-02-16T13:56:14.940Z,51.00
2019-02-16T13:58:51.504Z,52.10
2019-02-16T14:01:45.471Z,52.40
2019-02-16T14:04:25.276Z,54.40
2019-02-16T14:07:05.777Z,55.30
2019-02-16T14:09:58.285Z,57.40
2019-02-16T14:12:53.806Z,61.10
2019-02-16T14:15:49.956Z,62.20
2019-02-16T14:18:20.345Z,68.00
2019-02-16T14:20:50.676Z,76.70
2019-02-16T14:23:22.033Z,87.50
2019-02-16T14:25:52.459Z,96.30
2019-02-16T14:28:23.164Z,99.90
2019-02-16T14:30:53.587Z,99.90
2019-02-16T14:33:23.939Z,99.90
2019-02-16T14:35:54.263Z,99.90
2019-02-16T14:38:31.892Z,99.90
2019-02-16T14:41:02.316Z,99.90
2019-02-16T14:43:33.832Z,99.90
2019-02-16T14:46:04.443Z,99.90
2019-02-16T14:48:35.094Z,99.90
2019-02-16T14:51:05.555Z,99.90
2019-02-16T14:53:35.850Z,99.90
2019-02-16T14:56:06.484Z,99.90
2019-02-16T14:58:36.858Z,99.90
2019-02-16T15:01:07.329Z,99.90
2019-02-16T15:03:37.663Z,99.90
2019-02-16T15:06:08.195Z,99.90
2019-02-16T15:08:38.512Z,99.90
2019-02-16T15:11:09.055Z,99.90
2019-02-16T15:13:39.344Z,99.90
2019-02-16T15:16:11.814Z,99.90
2019-02-16T15:18:42.594Z,99.90
2019-02-16T15:21:12.909Z,99.90
2019-02-16T15:23:43.196Z,99.90
2019-02-16T15:26:13.542Z,99.90
2019-02-16T15:28:44.956Z,99.90
2019-02-16T15:31:15.316Z,99.90
2019-02-16T15:33:45.616Z,99.90
2019-02-16T15:36:23.657Z,99.90
2019-02-16T15:38:48.225Z,99.90
2019-02-16T15:41:20.010Z,99.90
2019-02-16T15:43:50.621Z,99.90
2019-02-16T15:46:22.206Z,99.90
2019-02-16T15:48:52.864Z,99.90
2019-02-16T15:51:24.505Z,99.90
2019-02-16T15:53:54.859Z,99.90
2019-02-16T15:56:25.251Z,99.90
2019-02-16T15:58:55.515Z,99.90
2019-02-16T16:01:25.882Z,99.90
2019-02-16T16:03:56.588Z,99.90
2019-02-16T16:06:26.905Z,99.90
2019-02-16T16:09:01.943Z,99.90
2019-02-16T16:11:51.330Z,99.90
2019-02-16T16:14:34.729Z,99.90
2019-02-16T16:17:17.314Z,99.90
2019-02-16T16:20:07.369Z,99.90
2019-02-16T16:22:44.288Z,99.90
2019-02-16T16:25:34.169Z,99.90
2019-02-16T16:28:14.019Z,99.90
2019-02-16T16:30:53.571Z,99.90
2019-02-16T16:33:52.359Z,99.90
2019-02-16T16:36:31.517Z,99.90
2019-02-16T16:39:20.435Z,99.90
2019-02-16T16:42:13.267Z,99.90
2019-02-16T16:44:56.920Z,99.90
2019-02-16T16:47:58.759Z,99.90
2019-02-16T16:50:47.097Z,99.90
2019-02-16T16:53:33.931Z,99.90
2019-02-16T16:56:27.989Z,99.90
2019-02-16T16:59:22.128Z,99.90
2019-02-16T17:02:00.709Z,99.90
2019-02-16T17:04:43.109Z,99.90
2019-02-16T17:07:38.806Z,99.90
2019-02-16T17:10:19.935Z,99.90
2019-02-16T17:13:25.667Z,99.90
2019-02-16T17:16:07.566Z,99.90
2019-02-16T17:18:57.191Z,99.90
2019-02-16T17:22:03.816Z,99.90
2019-02-16T17:24:56.071Z,99.90
2019-02-16T17:27:45.881Z,99.90
2019-02-16T17:30:38.103Z,99.90
2019-02-16T17:33:15.019Z,99.90
2019-02-16T17:35:56.875Z,99.90
2019-02-16T17:38:53.128Z,99.90
2019-02-16T17:41:38.940Z,99.90
2019-02-16T17:44:34.439Z,99.90
2019-02-16T17:47:13.479Z,99.90
2019-02-16T17:50:01.195Z,99.90
2019-02-16T17:52:42.980Z,99.90
2019-02-16T17:55:38.454Z,99.90
2019-02-16T17:58:34.946Z,99.90
2019-02-16T18:01:13.296Z,99.90
2019-02-16T18:03:55.288Z,99.90
2019-02-16T18:06:43.510Z,99.90
2019-02-16T18:09:29.227Z,99.90
2019-02-16T18:12:34.015Z,99.90
2019-02-16T18:15:23.707Z,99.90
2019-02-16T18:18:10.414Z,99.90
2019-02-16T18:20:58.494Z,99.90
2019-02-16T18:23:37.432Z,99.90
2019-02-16T18:26:29.144Z,99.90
2019-02-16T18:29:18.567Z,99.90
2019-02-16T18:32:03.499Z,99.90
2019-02-16T18:34:48.217Z,99.90
2019-02-16T18:37:37.578Z,99.90
2019-02-16T18:40:28.964Z,99.90
2019-02-16T18:43:12.839Z,99.90
2019-02-16T18:45:59.672Z,99.90
2019-02-16T18:48:48.049Z,99.90
2019-02-16T18:51:25.812Z,99.90
2019-02-16T18:54:12.809Z,99.90
2019-02-16T18:57:06.125Z,99.90
2019-02-16T18:59:43.367Z,99.90
2019-02-16T19:02:27.880Z,99.90
2019-02-16T19:05:17.682Z,99.90
2019-02-16T19:08:05.700Z,99.90
2019-02-16T19:10:53.771Z,99.90
2019-02-16T19:13:41.946Z,99.90
2019-02-16T19:16:20.787Z,99.90
2019-02-16T19:19:20.743Z,99.90
2019-02-16T19:22:01.928Z,99.90
2019-02-16T19:24:39.484Z,99.90
2019-02-16T19:27:23.686Z,99.90
2019-02-16T19:30:25.509Z,99.90
2019-02-16T19:33:24.058Z,99.90
2019-02-16T19:36:19.537Z,99.90
2019-02-16T19:39:08.924Z,99.90
2019-02-16T19:41:48.968Z,99.90
2019-02-16T19:44:38.798Z,99.90
2019-02-16T19:47:38.367Z,99.90
2019-02-16T19:50:23.364Z,99.90
2019-02-16T19:53:11.731Z,99.90
2019-02-16T19:55:48.794Z,99.90
2019-02-16T19:58:32.386Z,99.90
2019-02-16T20:01:27.817Z,99.90
2019-02-16T20:04:17.188Z,99.90
2019-02-16T20:07:02.034Z,99.90
2019-02-16T20:09:50.803Z,99.90
2019-02-16T20:12:46.844Z,99.90
2019-02-16T20:15:35.549Z,99.90
2019-02-16T20:18:26.094Z,99.90
2019-02-16T20:21:14.383Z,99.90
2019-02-16T20:24:03.794Z,99.90
2019-02-16T20:26:57.664Z,99.90
2019-02-16T20:29:34.445Z,99.90
2019-02-16T20:32:11.371Z,99.90
2019-02-16T20:34:54.252Z,99.90
2019-02-16T20:37:39.721Z,99.90
2019-02-16T20:40:21.835Z,99.90
2019-02-16T20:42:59.550Z,99.90
2019-02-16T20:46:07.362Z,99.90
2019-02-16T20:48:58.794Z,99.90
2019-02-16T20:52:03.679Z,99.90
2019-02-16T20:54:40.539Z,99.90
2019-02-16T20:57:20.607Z,99.90
2019-02-16T21:00:09.975Z,99.90
2019-02-16T21:02:58.434Z,99.90
2019-02-16T21:05:49.304Z,99.90
2019-02-16T21:08:41.764Z,99.90
2019-02-16T21:11:29.774Z,99.90
2019-02-16T21:14:23.282Z,99.90
2019-02-16T21:17:12.686Z,99.90
2019-02-16T21:19:59.759Z,99.90
2019-02-16T21:22:36.627Z,99.90
2019-02-16T21:25:26.213Z,99.90
2019-02-16T21:28:15.953Z,99.90
2019-02-16T21:31:01.023Z,99.90
2019-02-16T21:33:37.216Z,99.90
2019-02-16T21:36:32.456Z,99.90
2019-02-16T21:39:24.628Z,99.90
2019-02-16T21:42:17.011Z,99.90
2019-02-16T21:45:13.363Z,99.90
2019-02-16T21:48:01.587Z,99.90
2019-02-16T21:50:51.040Z,99.90
2019-02-16T21:53:40.452Z,99.90
2019-02-16T21:56:18.276Z,99.90
2019-02-16T21:59:01.866Z,99.90
2019-02-16T22:01:47.721Z,99.90
2019-02-16T22:04:23.366Z,99.90
2019-02-16T22:07:13.477Z,99.90
2019-02-16T22:10:02.915Z,99.90
2019-02-16T22:13:01.492Z,99.90
2019-02-16T22:15:31.857Z,99.90
2019-02-16T22:18:02.268Z,99.90
2019-02-16T22:20:32.609Z,99.90
2019-02-16T22:23:03.808Z,99.90
2019-02-16T22:25:34.180Z,99.90
2019-02-16T22:28:04.825Z,99.90
2019-02-16T22:30:35.166Z,99.90
2019-02-16T22:33:06.255Z,99.90
2019-02-16T22:35:36.846Z,99.90
2019-02-16T22:38:07.245Z,99.90
2019-02-16T22:40:37.624Z,99.90
2019-02-16T22:43:07.986Z,99.90
2019-02-16T22:45:38.326Z,99.90
2019-02-16T22:48:08.955Z,99.90
2019-02-16T22:50:39.889Z,99.90
2019-02-16T22:53:10.525Z,99.90
2019-02-16T22:55:40.859Z,99.90
2019-02-16T22:58:13.835Z,99.90
2019-02-16T23:00:54.213Z,99.90
2019-02-16T23:03:24.892Z,99.90
2019-02-16T23:05:55.244Z,99.90
2019-02-16T23:08:25.622Z,99.90
2019-02-16T23:10:55.996Z,99.90
2019-02-16T23:13:26.330Z,99.90
2019-02-16T23:15:57.753Z,99.90
2019-02-16T23:18:28.175Z,99.90
2019-02-16T23:20:58.634Z,99.90
2019-02-16T23:23:28.952Z,99.90
2019-02-16T23:25:59.709Z,99.90
2019-02-16T23:28:38.674Z,99.90
2019-02-16T23:31:02.152Z,99.90
2019-02-16T23:33:33.182Z,99.90
2019-02-16T23:36:03.633Z,99.90
2019-02-16T23:38:33.972Z,99.90
2019-02-16T23:41:06.360Z,99.90
2019-02-16T23:43:36.307Z,99.90
2019-02-16T23:46:06.727Z,99.90
2019-02-16T23:48:37.411Z,99.90
2019-02-16T23:51:07.733Z,99.90
2019-02-16T23:53:39.073Z,99.90
2019-02-16T23:56:09.643Z,99.90
2019-02-16T23:58:48.955Z,99.90
